Time;durP1;ratioP1;P1;durP2;ratioP2;P2;SDS_P1;SDS_P2;PMS_P1;PMS_P2;Temp;Humidity;BMP_temperature;BMP_pressure;BME280_temperature;BME280_humidity;BME280_pressure;Samples;Min_cycle;Max_cycle;Signal;HPM_P1;HPM_P2
2023/03/12 00:01:12;;;;;;;11.85;8.93;;;;;;;;;;5134867;28;20187;-66
2023/03/12 00:03:39;;;;;;;13.55;8.65;;;;;;;;;;5133983;28;20232;-66
2023/03/12 00:06:07;;;;;;;13.48;9.02;;;;;;;;;;5133896;28;20401;-66
2023/03/12 00:08:34;;;;;;;15.82;9.90;;;;;;;;;;5134659;28;20193;-66
2023/03/12 00:11:06;;;;;;;9.95;7.63;;;;;;;;;;5114801;27;20190;-66
2023/03/12 00:13:33;;;;;;;19.35;11.05;;;;;;;;;;5114023;28;20206;-66
2023/03/12 00:16:03;;;;;;;16.23;12.15;;;;;;;;;;5113712;28;20197;-66
2023/03/12 00:18:31;;;;;;;14.45;10.32;;;;;;;;;;5114054;28;20182;-66
2023/03/12 00:20:58;;;;;;;13.27;9.25;;;;;;;;;;5113256;28;20205;-66
2023/03/12 00:23:25;;;;;;;10.88;9.15;;;;;;;;;;5113295;28;20202;-66
2023/03/12 00:25:52;;;;;;;12.38;9.68;;;;;;;;;;5113560;28;20546;-66
2023/03/12 00:28:21;;;;;;;14.82;9.50;;;;;;;;;;5113625;28;20202;-66
2023/03/12 00:30:48;;;;;;;17.55;11.30;;;;;;;;;;5114047;28;20647;-66
2023/03/12 00:33:15;;;;;;;19.55;10.80;;;;;;;;;;5115983;28;20526;-66
2023/03/12 00:35:42;;;;;;;19.65;10.23;;;;;;;;;;5117955;28;20188;-66
2023/03/12 00:38:09;;;;;;;14.30;10.57;;;;;;;;;;5117076;28;20197;-66
2023/03/12 00:40:38;;;;;;;12.30;9.30;;;;;;;;;;5116952;28;20290;-66
2023/03/12 00:43:05;;;;;;;11.60;9.55;;;;;;;;;;5116828;28;20678;-66
2023/03/12 00:45:34;;;;;;;14.18;8.60;;;;;;;;;;5116847;28;20191;-66
2023/03/12 00:48:01;;;;;;;14.15;8.93;;;;;;;;;;5117014;28;20187;-66
2023/03/12 00:50:28;;;;;;;10.10;8.50;;;;;;;;;;5117074;28;20190;-66
2023/03/12 00:52:55;;;;;;;9.25;8.25;;;;;;;;;;5116823;28;20211;-66
2023/03/12 00:55:22;;;;;;;15.07;8.30;;;;;;;;;;5117691;28;20194;-66
2023/03/12 00:57:49;;;;;;;11.55;7.28;;;;;;;;;;5117102;28;20196;-66
2023/03/12 01:00:17;;;;;;;11.63;7.30;;;;;;;;;;5116581;28;20221;-66
2023/03/12 01:02:46;;;;;;;12.30;7.20;;;;;;;;;;5118401;27;20552;-66
2023/03/12 01:05:13;;;;;;;6.65;5.82;;;;;;;;;;5117340;28;20226;-66
2023/03/12 01:07:41;;;;;;;11.25;6.55;;;;;;;;;;5116666;27;20194;-66
2023/03/12 01:10:09;;;;;;;9.25;6.28;;;;;;;;;;5134772;27;20663;-66
2023/03/12 01:12:36;;;;;;;11.48;6.13;;;;;;;;;;5136736;27;20201;-66
2023/03/12 01:15:04;;;;;;;9.50;6.38;;;;;;;;;;5136869;27;20190;-66
2023/03/12 01:17:31;;;;;;;10.63;7.40;;;;;;;;;;5137992;27;20191;-66
2023/03/12 01:20:00;;;;;;;9.20;6.40;;;;;;;;;;5137062;27;20193;-66
2023/03/12 01:22:27;;;;;;;8.85;6.20;;;;;;;;;;5136599;27;20190;-66
2023/03/12 01:24:54;;;;;;;8.30;6.15;;;;;;;;;;5136668;27;20613;-66
2023/03/12 01:27:21;;;;;;;12.65;6.63;;;;;;;;;;5136806;27;20511;-66
2023/03/12 01:29:50;;;;;;;9.63;7.00;;;;;;;;;;5136869;27;20203;-66
2023/03/12 01:32:17;;;;;;;11.55;6.82;;;;;;;;;;5136751;27;20193;-66
2023/03/12 01:34:44;;;;;;;11.15;7.38;;;;;;;;;;5136248;27;20222;-67
2023/03/12 01:37:13;;;;;;;11.63;6.80;;;;;;;;;;5136619;27;20196;-66
2023/03/12 01:39:40;;;;;;;9.63;6.80;;;;;;;;;;5136644;27;20535;-66
2023/03/12 01:42:08;;;;;;;11.68;7.47;;;;;;;;;;5136505;27;20190;-66
2023/03/12 01:44:49;;;;;;;8.80;6.50;;;;;;;;;;5135540;27;20274;-66
2023/03/12 01:47:16;;;;;;;7.22;6.50;;;;;;;;;;5136541;27;20269;-66
2023/03/12 01:49:44;;;;;;;8.70;7.57;;;;;;;;;;5136565;27;20187;-66
2023/03/12 01:52:14;;;;;;;12.68;7.22;;;;;;;;;;5136444;27;20193;-66
2023/03/12 01:54:45;;;;;;;7.32;6.65;;;;;;;;;;5136328;27;20562;-66
2023/03/12 01:57:14;;;;;;;10.75;7.85;;;;;;;;;;5136846;27;20656;-66
2023/03/12 01:59:43;;;;;;;10.05;6.57;;;;;;;;;;5136248;27;20201;-66
2023/03/12 02:02:10;;;;;;;9.15;5.95;;;;;;;;;;5123505;27;20198;-66
2023/03/12 02:04:39;;;;;;;14.38;7.18;;;;;;;;;;5115794;28;20214;-66
2023/03/12 02:07:08;;;;;;;11.65;7.88;;;;;;;;;;5115264;28;20187;-67
2023/03/12 02:09:37;;;;;;;8.30;6.50;;;;;;;;;;5117515;27;20197;-66
2023/03/12 02:12:06;;;;;;;10.93;7.38;;;;;;;;;;5115509;28;20252;-66
2023/03/12 02:14:34;;;;;;;11.35;6.85;;;;;;;;;;5115359;28;20215;-66
2023/03/12 02:17:01;;;;;;;10.20;6.90;;;;;;;;;;5115346;28;20188;-66
2023/03/12 02:19:31;;;;;;;9.88;7.75;;;;;;;;;;5115271;28;20188;-66
2023/03/12 02:21:59;;;;;;;10.75;6.82;;;;;;;;;;5115278;28;20196;-66
2023/03/12 02:24:28;;;;;;;7.80;6.65;;;;;;;;;;5115133;28;20198;-66
2023/03/12 02:26:57;;;;;;;7.22;6.03;;;;;;;;;;5115309;28;20192;-66
2023/03/12 02:29:25;;;;;;;7.75;6.55;;;;;;;;;;5114677;28;20188;-66
2023/03/12 02:31:54;;;;;;;9.57;6.30;;;;;;;;;;5115463;28;20192;-66
2023/03/12 02:34:22;;;;;;;6.53;5.95;;;;;;;;;;5115094;28;20219;-66
2023/03/12 02:36:49;;;;;;;10.27;5.90;;;;;;;;;;5114956;28;20196;-66
2023/03/12 02:39:17;;;;;;;11.90;6.38;;;;;;;;;;5114553;28;20659;-66
2023/03/12 02:41:45;;;;;;;9.50;6.30;;;;;;;;;;5114869;28;20247;-67
2023/03/12 02:44:17;;;;;;;7.32;6.63;;;;;;;;;;5114733;28;20194;-66
2023/03/12 02:46:45;;;;;;;6.60;6.00;;;;;;;;;;5115297;28;20184;-66
2023/03/12 02:49:13;;;;;;;10.73;7.05;;;;;;;;;;5114369;28;20191;-66
2023/03/12 02:51:40;;;;;;;9.30;6.78;;;;;;;;;;5114619;28;20182;-66
2023/03/12 02:54:08;;;;;;;6.75;6.15;;;;;;;;;;5114755;28;20226;-66
2023/03/12 02:56:35;;;;;;;9.23;6.55;;;;;;;;;;5114514;28;20190;-66
2023/03/12 02:59:03;;;;;;;10.35;7.10;;;;;;;;;;5114461;28;20631;-66
2023/03/12 03:01:32;;;;;;;12.35;6.65;;;;;;;;;;5116909;27;20212;-66
2023/03/12 03:04:00;;;;;;;7.72;7.05;;;;;;;;;;5114249;28;20259;-66
2023/03/12 03:06:27;;;;;;;10.13;7.10;;;;;;;;;;5114142;28;20658;-67
2023/03/12 03:08:54;;;;;;;8.60;7.55;;;;;;;;;;5116399;27;20631;-66
2023/03/12 03:11:23;;;;;;;8.07;7.28;;;;;;;;;;5114435;28;20247;-66
2023/03/12 03:13:50;;;;;;;11.65;7.10;;;;;;;;;;5113867;28;20214;-67
2023/03/12 03:16:17;;;;;;;9.00;7.75;;;;;;;;;;5114366;28;20197;-67
2023/03/12 03:18:46;;;;;;;9.15;7.47;;;;;;;;;;5114241;28;20191;-67
2023/03/12 03:21:15;;;;;;;9.25;6.65;;;;;;;;;;5114395;28;20282;-67
2023/03/12 03:23:42;;;;;;;7.88;6.70;;;;;;;;;;5115136;28;20285;-67
2023/03/12 03:26:10;;;;;;;8.10;6.55;;;;;;;;;;5114151;28;20220;-67
2023/03/12 03:28:37;;;;;;;11.20;8.35;;;;;;;;;;5113707;28;20196;-67
2023/03/12 03:31:05;;;;;;;8.63;7.43;;;;;;;;;;5114073;28;20191;-67
2023/03/12 03:33:33;;;;;;;8.57;7.78;;;;;;;;;;5113691;28;20216;-67
2023/03/12 03:36:02;;;;;;;9.45;7.70;;;;;;;;;;5114857;28;20196;-67
2023/03/12 03:38:30;;;;;;;9.15;6.80;;;;;;;;;;5114346;28;20548;-67
2023/03/12 03:40:57;;;;;;;10.10;7.53;;;;;;;;;;5114411;28;20280;-67
2023/03/12 03:43:24;;;;;;;9.25;7.65;;;;;;;;;;5113987;28;20194;-66
2023/03/12 03:45:57;;;;;;;15.52;9.63;;;;;;;;;;5113881;28;20192;-66
2023/03/12 03:48:25;;;;;;;10.52;7.93;;;;;;;;;;5114001;28;20237;-66
2023/03/12 03:50:52;;;;;;;9.32;8.52;;;;;;;;;;5113798;28;20198;-66
2023/03/12 03:53:21;;;;;;;11.48;8.98;;;;;;;;;;5121610;28;20195;-66
2023/03/12 03:55:48;;;;;;;11.43;8.05;;;;;;;;;;5134126;28;20192;-66
2023/03/12 03:58:15;;;;;;;11.15;8.38;;;;;;;;;;5133935;28;20220;-67
2023/03/12 04:00:44;;;;;;;11.73;7.80;;;;;;;;;;5131410;28;20195;-67
2023/03/12 04:03:12;;;;;;;10.45;7.55;;;;;;;;;;5114630;28;20230;-66
2023/03/12 04:05:39;;;;;;;7.43;6.70;;;;;;;;;;5113486;28;20189;-66
2023/03/12 04:08:06;;;;;;;7.30;6.60;;;;;;;;;;5116196;28;20196;-66
2023/03/12 04:10:35;;;;;;;7.65;6.85;;;;;;;;;;5129649;27;20191;-67
2023/03/12 04:13:02;;;;;;;8.45;7.55;;;;;;;;;;5138638;27;20190;-67
2023/03/12 04:15:29;;;;;;;8.10;6.60;;;;;;;;;;5138053;27;20207;-66
2023/03/12 04:17:56;;;;;;;6.78;6.05;;;;;;;;;;5137802;27;20197;-66
2023/03/12 04:20:23;;;;;;;9.30;7.20;;;;;;;;;;5137746;27;20195;-67
2023/03/12 04:22:51;;;;;;;8.32;5.90;;;;;;;;;;5137666;27;20186;-67
2023/03/12 04:25:18;;;;;;;9.48;6.80;;;;;;;;;;5137968;27;20199;-66
2023/03/12 04:27:46;;;;;;;8.05;7.25;;;;;;;;;;5138044;27;20194;-66
2023/03/12 04:30:14;;;;;;;8.55;6.05;;;;;;;;;;5137517;27;20198;-67
2023/03/12 04:32:41;;;;;;;8.15;6.22;;;;;;;;;;5137723;27;20538;-67
2023/03/12 04:35:09;;;;;;;6.20;5.60;;;;;;;;;;5137376;27;20217;-66
2023/03/12 04:37:36;;;;;;;8.75;6.28;;;;;;;;;;5137493;27;20189;-67
2023/03/12 04:40:06;;;;;;;7.50;6.50;;;;;;;;;;5137960;27;20201;-67
2023/03/12 04:42:34;;;;;;;6.72;5.97;;;;;;;;;;5137691;27;20274;-67
2023/03/12 04:45:03;;;;;;;6.65;5.93;;;;;;;;;;5137241;27;20237;-66
2023/03/12 04:47:31;;;;;;;6.88;5.55;;;;;;;;;;5137638;27;20228;-68
2023/03/12 04:49:58;;;;;;;8.35;6.18;;;;;;;;;;5137127;27;20193;-66
2023/03/12 04:52:26;;;;;;;6.40;5.72;;;;;;;;;;5136898;27;20678;-67
2023/03/12 04:54:53;;;;;;;5.82;5.30;;;;;;;;;;5137313;27;20217;-67
2023/03/12 04:57:20;;;;;;;7.32;5.00;;;;;;;;;;5137784;27;20284;-66
2023/03/12 04:59:48;;;;;;;8.52;5.50;;;;;;;;;;5137309;27;20187;-67
2023/03/12 05:02:16;;;;;;;6.82;5.20;;;;;;;;;;5137025;27;20612;-67
2023/03/12 05:04:43;;;;;;;10.38;5.05;;;;;;;;;;5137047;27;20230;-67
2023/03/12 05:07:11;;;;;;;6.90;5.28;;;;;;;;;;5136846;27;20284;-66
2023/03/12 05:09:38;;;;;;;6.60;5.20;;;;;;;;;;5137217;27;20341;-66
2023/03/12 05:12:05;;;;;;;7.80;4.70;;;;;;;;;;5137055;27;20196;-67
2023/03/12 05:14:33;;;;;;;5.30;4.60;;;;;;;;;;5136987;27;20215;-67
2023/03/12 05:17:00;;;;;;;5.47;4.53;;;;;;;;;;5136924;27;20363;-67
2023/03/12 05:19:28;;;;;;;9.45;4.60;;;;;;;;;;5135770;27;20188;-66
2023/03/12 05:21:55;;;;;;;5.78;5.15;;;;;;;;;;5136634;27;20632;-66
2023/03/12 05:24:23;;;;;;;5.28;4.78;;;;;;;;;;5136849;27;20199;-67
2023/03/12 05:26:50;;;;;;;5.55;4.40;;;;;;;;;;5136625;27;20302;-67
2023/03/12 05:29:17;;;;;;;4.65;4.22;;;;;;;;;;5136336;27;20190;-66
2023/03/12 05:31:45;;;;;;;7.05;4.72;;;;;;;;;;5136358;27;20194;-67
2023/03/12 05:34:12;;;;;;;6.50;4.78;;;;;;;;;;5136449;27;20574;-66
2023/03/12 05:36:41;;;;;;;5.60;5.07;;;;;;;;;;5136500;27;20206;-66
2023/03/12 05:39:08;;;;;;;7.43;4.15;;;;;;;;;;5136701;27;20234;-66
2023/03/12 05:41:36;;;;;;;6.10;4.00;;;;;;;;;;5136189;27;20644;-66
2023/03/12 05:44:03;;;;;;;6.38;4.00;;;;;;;;;;5136206;27;20631;-67
2023/03/12 05:46:30;;;;;;;8.55;4.82;;;;;;;;;;5136366;27;20198;-67
2023/03/12 05:48:57;;;;;;;5.95;4.53;;;;;;;;;;5136778;27;20199;-67
2023/03/12 05:51:24;;;;;;;6.68;4.63;;;;;;;;;;5135928;27;20194;-67
2023/03/12 05:53:53;;;;;;;5.40;3.95;;;;;;;;;;5136329;27;20223;-67
2023/03/12 05:56:20;;;;;;;4.45;4.05;;;;;;;;;;5136180;27;20191;-67
2023/03/12 05:58:49;;;;;;;4.80;4.28;;;;;;;;;;5136102;27;20198;-67
2023/03/12 06:01:18;;;;;;;6.43;4.30;;;;;;;;;;5136069;27;20194;-66
2023/03/12 06:03:45;;;;;;;4.55;4.20;;;;;;;;;;5136235;27;20577;-68
2023/03/12 06:06:12;;;;;;;4.60;4.03;;;;;;;;;;5136043;27;20194;-67
2023/03/12 06:08:39;;;;;;;5.82;4.07;;;;;;;;;;5135996;27;20191;-67
2023/03/12 06:11:08;;;;;;;6.53;4.30;;;;;;;;;;5135827;27;20194;-66
2023/03/12 06:13:35;;;;;;;6.28;3.75;;;;;;;;;;5136097;27;20213;-67
2023/03/12 06:16:04;;;;;;;4.13;3.67;;;;;;;;;;5135755;27;20575;-67
2023/03/12 06:18:32;;;;;;;4.13;3.83;;;;;;;;;;5135795;27;20197;-67
2023/03/12 06:21:08;;;;;;;7.97;3.95;;;;;;;;;;5135424;27;20206;-66
2023/03/12 06:23:36;;;;;;;5.72;3.50;;;;;;;;;;5135979;27;20278;-66
2023/03/12 06:26:03;;;;;;;8.45;3.83;;;;;;;;;;5135830;27;20191;-67
2023/03/12 06:28:31;;;;;;;4.13;3.22;;;;;;;;;;5135175;27;20190;-67
2023/03/12 06:30:58;;;;;;;7.97;3.95;;;;;;;;;;5134968;27;20281;-67
2023/03/12 06:33:26;;;;;;;4.32;3.60;;;;;;;;;;5135596;27;20198;-67
2023/03/12 06:35:54;;;;;;;7.22;3.60;;;;;;;;;;5135062;27;20214;-67
2023/03/12 06:38:22;;;;;;;3.60;3.30;;;;;;;;;;5135589;27;20203;-67
2023/03/12 06:40:59;;;;;;;3.53;3.17;;;;;;;;;;5135323;27;20186;-67
2023/03/12 06:43:27;;;;;;;3.83;3.25;;;;;;;;;;5135790;27;20180;-67
2023/03/12 06:45:57;;;;;;;6.53;3.50;;;;;;;;;;5135645;27;20195;-67
2023/03/12 06:48:24;;;;;;;7.32;3.60;;;;;;;;;;5135111;27;20190;-68
2023/03/12 06:50:52;;;;;;;5.35;3.25;;;;;;;;;;5134871;27;20199;-67
2023/03/12 06:53:19;;;;;;;4.00;3.30;;;;;;;;;;5134891;27;20237;-67
2023/03/12 06:55:46;;;;;;;3.50;3.20;;;;;;;;;;5135002;27;20254;-67
2023/03/12 06:58:14;;;;;;;5.15;3.65;;;;;;;;;;5134956;27;20199;-67
2023/03/12 07:00:41;;;;;;;7.68;3.53;;;;;;;;;;5134918;27;20187;-67
2023/03/12 07:03:10;;;;;;;4.10;3.42;;;;;;;;;;5134490;27;20231;-66
2023/03/12 07:05:37;;;;;;;4.22;3.25;;;;;;;;;;5134691;27;20183;-67
2023/03/12 07:08:04;;;;;;;3.58;3.00;;;;;;;;;;5134561;27;20198;-67
2023/03/12 07:10:32;;;;;;;7.15;3.38;;;;;;;;;;5134523;27;20221;-67
2023/03/12 07:13:00;;;;;;;5.20;3.78;;;;;;;;;;5134532;27;20277;-67
2023/03/12 07:15:27;;;;;;;5.35;3.28;;;;;;;;;;5134422;27;20214;-67
2023/03/12 07:17:54;;;;;;;8.10;3.90;;;;;;;;;;5134598;27;20191;-69
2023/03/12 07:20:23;;;;;;;4.45;3.40;;;;;;;;;;5134875;27;20191;-67
2023/03/12 07:22:50;;;;;;;3.30;3.00;;;;;;;;;;5134513;27;20213;-66
2023/03/12 07:25:17;;;;;;;3.17;2.88;;;;;;;;;;5134677;27;20201;-66
2023/03/12 07:27:44;;;;;;;5.10;2.90;;;;;;;;;;5134652;27;20191;-66
2023/03/12 07:30:12;;;;;;;3.50;3.20;;;;;;;;;;5134849;27;20213;-66
2023/03/12 07:32:39;;;;;;;4.50;3.00;;;;;;;;;;5133947;27;20203;-67
2023/03/12 07:35:07;;;;;;;5.60;2.95;;;;;;;;;;5134609;27;20211;-67
2023/03/12 07:37:35;;;;;;;8.52;3.60;;;;;;;;;;5134395;27;20188;-66
2023/03/12 07:40:06;;;;;;;7.07;3.00;;;;;;;;;;5134161;27;20200;-67
2023/03/12 07:42:33;;;;;;;3.30;2.83;;;;;;;;;;5133503;27;20189;-67
2023/03/12 07:45:00;;;;;;;6.32;2.80;;;;;;;;;;5134369;28;20251;-67
2023/03/12 07:47:27;;;;;;;4.63;2.85;;;;;;;;;;5134029;28;20192;-66
2023/03/12 07:49:54;;;;;;;4.20;2.47;;;;;;;;;;5134384;28;20647;-66
2023/03/12 07:52:22;;;;;;;4.00;3.63;;;;;;;;;;5134281;28;20191;-67
2023/03/12 07:54:53;;;;;;;4.70;3.22;;;;;;;;;;5134252;28;20250;-66
2023/03/12 07:57:20;;;;;;;5.75;3.22;;;;;;;;;;5134653;28;20279;-66
2023/03/12 07:59:47;;;;;;;9.48;3.63;;;;;;;;;;5134278;28;20544;-66
2023/03/12 08:02:14;;;;;;;6.60;3.10;;;;;;;;;;5134215;28;20276;-67
2023/03/12 08:04:41;;;;;;;5.85;3.13;;;;;;;;;;5133891;28;20226;-67
2023/03/12 08:07:09;;;;;;;5.07;2.97;;;;;;;;;;5134190;28;20301;-66
2023/03/12 08:09:37;;;;;;;6.75;3.85;;;;;;;;;;5133791;28;20192;-67
2023/03/12 08:12:06;;;;;;;5.43;3.25;;;;;;;;;;5134235;27;20240;-66
2023/03/12 08:14:33;;;;;;;3.42;3.10;;;;;;;;;;5133947;28;20198;-67
2023/03/12 08:17:00;;;;;;;4.72;3.00;;;;;;;;;;5133964;28;20694;-66
2023/03/12 08:19:28;;;;;;;5.50;2.85;;;;;;;;;;5134031;28;20277;-67
2023/03/12 08:21:56;;;;;;;4.28;2.63;;;;;;;;;;5133856;28;20202;-67
2023/03/12 08:24:24;;;;;;;4.03;3.00;;;;;;;;;;5133563;28;20192;-67
2023/03/12 08:26:51;;;;;;;10.77;3.63;;;;;;;;;;5134442;28;20197;-65
2023/03/12 08:29:20;;;;;;;3.45;2.88;;;;;;;;;;5133770;28;20197;-67
2023/03/12 08:31:47;;;;;;;4.03;2.90;;;;;;;;;;5134012;28;20253;-65
2023/03/12 08:34:14;;;;;;;3.65;3.35;;;;;;;;;;5133607;28;20191;-65
2023/03/12 08:36:41;;;;;;;5.80;3.55;;;;;;;;;;5133775;28;20213;-65
2023/03/12 08:39:08;;;;;;;4.85;3.10;;;;;;;;;;5133931;28;20204;-64
2023/03/12 08:41:36;;;;;;;6.70;3.67;;;;;;;;;;5133840;28;20192;-65
2023/03/12 08:44:03;;;;;;;5.75;3.95;;;;;;;;;;5133478;28;20210;-65
2023/03/12 08:46:31;;;;;;;6.10;4.70;;;;;;;;;;5133840;28;20661;-65
2023/03/12 08:48:59;;;;;;;8.40;4.10;;;;;;;;;;5134198;28;20196;-65
2023/03/12 08:51:26;;;;;;;7.13;4.30;;;;;;;;;;5133789;28;20191;-65
2023/03/12 08:53:53;;;;;;;6.60;4.38;;;;;;;;;;5135238;27;20198;-65
2023/03/12 08:56:21;;;;;;;6.30;4.55;;;;;;;;;;5137412;27;20213;-65
2023/03/12 08:58:48;;;;;;;6.47;4.35;;;;;;;;;;5136916;27;20287;-65
2023/03/12 09:01:15;;;;;;;4.50;4.10;;;;;;;;;;5137361;27;20191;-65
2023/03/12 09:03:44;;;;;;;5.78;4.03;;;;;;;;;;5136851;27;20220;-65
2023/03/12 09:06:15;;;;;;;4.78;3.92;;;;;;;;;;5137245;27;20198;-66
2023/03/12 09:08:43;;;;;;;5.35;4.43;;;;;;;;;;5137153;27;20180;-66
2023/03/12 09:11:10;;;;;;;4.90;4.40;;;;;;;;;;5136906;27;20194;-67
2023/03/12 09:13:37;;;;;;;4.57;4.10;;;;;;;;;;5137123;27;20194;-66
2023/03/12 09:16:05;;;;;;;9.35;5.38;;;;;;;;;;5136971;27;20226;-66
2023/03/12 09:18:32;;;;;;;4.72;4.20;;;;;;;;;;5136889;27;20190;-67
2023/03/12 09:21:01;;;;;;;8.90;5.15;;;;;;;;;;5137234;27;20186;-67
2023/03/12 09:23:29;;;;;;;6.40;4.35;;;;;;;;;;5136711;27;20191;-67
2023/03/12 09:25:57;;;;;;;11.88;5.65;;;;;;;;;;5136856;27;20199;-68
2023/03/12 09:28:24;;;;;;;9.07;5.13;;;;;;;;;;5136389;27;20285;-66
2023/03/12 09:30:51;;;;;;;4.57;4.00;;;;;;;;;;5136410;27;20206;-66
2023/03/12 09:33:19;;;;;;;13.25;5.47;;;;;;;;;;5136620;27;20197;-66
2023/03/12 09:35:46;;;;;;;5.38;4.88;;;;;;;;;;5136194;27;20207;-67
2023/03/12 09:38:15;;;;;;;5.65;4.95;;;;;;;;;;5136350;27;20195;-66
2023/03/12 09:40:47;;;;;;;9.77;4.45;;;;;;;;;;5136403;27;20632;-66
2023/03/12 09:43:19;;;;;;;5.65;4.70;;;;;;;;;;5136877;27;20215;-67
2023/03/12 09:45:47;;;;;;;8.82;5.43;;;;;;;;;;5136127;27;20190;-67
2023/03/12 09:48:16;;;;;;;15.02;7.55;;;;;;;;;;5136093;27;20196;-67
2023/03/12 09:50:45;;;;;;;6.25;4.97;;;;;;;;;;5136308;27;20897;-67
2023/03/12 09:53:17;;;;;;;9.00;4.80;;;;;;;;;;5136227;27;20188;-67
2023/03/12 09:55:47;;;;;;;7.65;5.35;;;;;;;;;;5136371;27;20207;-67
2023/03/12 09:58:15;;;;;;;6.95;5.05;;;;;;;;;;5136227;27;20282;-66
2023/03/12 10:00:42;;;;;;;8.73;6.22;;;;;;;;;;5136124;27;20542;-67
2023/03/12 10:03:19;;;;;;;10.73;5.18;;;;;;;;;;5136192;27;20224;-67
2023/03/12 10:05:49;;;;;;;9.65;5.68;;;;;;;;;;5135425;27;20536;-67
2023/03/12 10:08:21;;;;;;;8.90;6.10;;;;;;;;;;5136058;27;20263;-67
2023/03/12 10:10:53;;;;;;;19.02;6.43;;;;;;;;;;5135959;27;20193;-67
2023/03/12 10:13:36;;;;;;;7.88;6.47;;;;;;;;;;5136138;27;20184;-67
2023/03/12 10:16:09;;;;;;;9.63;6.70;;;;;;;;;;5136005;27;20206;-66
2023/03/12 10:18:44;;;;;;;10.32;7.20;;;;;;;;;;5135907;27;20191;-67
2023/03/12 10:21:14;;;;;;;7.00;6.10;;;;;;;;;;5135476;27;20180;-67
2023/03/12 10:23:56;;;;;;;7.88;7.10;;;;;;;;;;5135794;27;20195;-67
2023/03/12 10:26:25;;;;;;;8.73;6.60;;;;;;;;;;5135516;27;20679;-67
2023/03/12 10:28:54;;;;;;;9.07;6.80;;;;;;;;;;5135856;27;20579;-66
2023/03/12 10:31:25;;;;;;;11.40;8.48;;;;;;;;;;5135207;27;20198;-67
2023/03/12 10:33:55;;;;;;;11.20;8.85;;;;;;;;;;5135441;27;20197;-67
2023/03/12 10:36:24;;;;;;;14.50;12.10;;;;;;;;;;5135484;27;20210;-67
2023/03/12 10:38:53;;;;;;;15.00;11.77;;;;;;;;;;5135200;27;20199;-67
2023/03/12 10:41:21;;;;;;;15.05;9.45;;;;;;;;;;5135342;27;20189;-67
2023/03/12 10:43:49;;;;;;;12.52;8.18;;;;;;;;;;5135402;27;20195;-67
2023/03/12 10:46:40;;;;;;;15.35;9.15;;;;;;;;;;5134995;27;20198;-67
2023/03/12 10:49:26;;;;;;;12.38;10.05;;;;;;;;;;5135468;27;20535;-67
2023/03/12 10:51:55;;;;;;;10.23;9.15;;;;;;;;;;5134862;27;20631;-67
2023/03/12 10:54:24;;;;;;;13.27;9.57;;;;;;;;;;5134943;27;20640;-66
2023/03/12 10:56:51;;;;;;;11.10;9.60;;;;;;;;;;5134989;27;20217;-66
2023/03/12 10:59:21;;;;;;;12.60;9.35;;;;;;;;;;5135251;27;20653;-66
2023/03/12 11:01:50;;;;;;;14.18;9.82;;;;;;;;;;5135450;27;20514;-66
2023/03/12 11:04:18;;;;;;;12.10;9.10;;;;;;;;;;5135123;27;20223;-67
2023/03/12 11:07:03;;;;;;;13.07;9.35;;;;;;;;;;5134820;27;20570;-65
2023/03/12 11:09:31;;;;;;;9.98;8.82;;;;;;;;;;5135225;27;20184;-66
2023/03/12 11:11:58;;;;;;;11.15;9.52;;;;;;;;;;5134574;27;20195;-66
2023/03/12 11:14:27;;;;;;;10.35;9.35;;;;;;;;;;5134484;27;20187;-67
2023/03/12 11:16:55;;;;;;;16.23;9.70;;;;;;;;;;5134582;27;20218;-64
2023/03/12 11:19:29;;;;;;;12.38;10.77;;;;;;;;;;5134777;27;20226;-66
2023/03/12 11:21:58;;;;;;;16.13;11.07;;;;;;;;;;5134868;27;20194;-66
2023/03/12 11:24:25;;;;;;;14.70;12.23;;;;;;;;;;5134330;27;20188;-67
2023/03/12 11:26:55;;;;;;;16.40;12.60;;;;;;;;;;5134547;27;20197;-66
2023/03/12 11:29:26;;;;;;;13.20;11.07;;;;;;;;;;5134690;27;20182;-66
2023/03/12 11:31:59;;;;;;;20.17;13.27;;;;;;;;;;5134886;27;20181;-66
2023/03/12 11:34:28;;;;;;;11.52;10.43;;;;;;;;;;5134837;27;20191;-67
2023/03/12 11:37:00;;;;;;;17.80;13.60;;;;;;;;;;5134435;27;20551;-66
2023/03/12 11:39:33;;;;;;;14.48;12.95;;;;;;;;;;5134740;27;20523;-66
2023/03/12 11:42:08;;;;;;;17.08;12.88;;;;;;;;;;5134547;27;20172;-66
2023/03/12 11:44:38;;;;;;;14.23;12.73;;;;;;;;;;5134246;27;20175;-66
2023/03/12 11:47:17;;;;;;;18.92;15.13;;;;;;;;;;5134027;28;20195;-65
2023/03/12 11:49:58;;;;;;;16.75;14.95;;;;;;;;;;5134468;28;20624;-66
2023/03/12 11:52:28;;;;;;;16.67;14.88;;;;;;;;;;5134363;28;20193;-66
2023/03/12 11:55:19;;;;;;;18.88;15.82;;;;;;;;;;5134715;28;20182;-67
2023/03/12 11:57:51;;;;;;;19.15;15.70;;;;;;;;;;5113770;28;20227;-66
2023/03/12 12:00:20;;;;;;;23.00;16.15;;;;;;;;;;5134422;28;20179;-66
2023/03/12 12:03:00;;;;;;;19.48;17.30;;;;;;;;;;5133730;28;20192;-66
2023/03/12 12:05:32;;;;;;;19.95;16.83;;;;;;;;;;5134591;28;20187;-66
2023/03/12 12:08:11;;;;;;;22.00;17.83;;;;;;;;;;5134223;28;20515;-66
2023/03/12 12:10:42;;;;;;;23.20;20.70;;;;;;;;;;5134193;28;20190;-66
2023/03/12 12:13:16;;;;;;;20.48;17.38;;;;;;;;;;5133908;28;20198;-66
2023/03/12 12:15:49;;;;;;;22.15;19.15;;;;;;;;;;5134212;28;20218;-66
2023/03/12 12:18:35;;;;;;;25.25;18.30;;;;;;;;;;5134142;28;20489;-66
2023/03/12 12:21:06;;;;;;;20.23;17.95;;;;;;;;;;5134106;28;20184;-66
2023/03/12 12:23:40;;;;;;;23.80;18.73;;;;;;;;;;5133975;28;20625;-66
2023/03/12 12:26:10;;;;;;;27.90;18.40;;;;;;;;;;5134182;28;20202;-67
2023/03/12 12:28:46;;;;;;;20.00;16.60;;;;;;;;;;5135523;27;20264;-66
2023/03/12 12:31:21;;;;;;;23.38;17.40;;;;;;;;;;5138056;27;20275;-64
2023/03/12 12:33:56;;;;;;;26.95;19.92;;;;;;;;;;5137682;27;20194;-66
2023/03/12 12:36:25;;;;;;;21.02;18.88;;;;;;;;;;5137611;27;20204;-66
2023/03/12 12:38:55;;;;;;;26.02;20.35;;;;;;;;;;5137911;27;20720;-66
2023/03/12 12:41:24;;;;;;;26.85;20.17;;;;;;;;;;5138382;27;20271;-66
2023/03/12 12:43:55;;;;;;;23.17;19.08;;;;;;;;;;5137851;27;20191;-64
2023/03/12 12:46:24;;;;;;;22.60;19.55;;;;;;;;;;5138280;27;20275;-67
2023/03/12 12:48:53;;;;;;;28.52;21.33;;;;;;;;;;5137505;27;20192;-66
2023/03/12 12:51:21;;;;;;;26.27;19.33;;;;;;;;;;5137715;27;20188;-66
2023/03/12 12:53:53;;;;;;;21.90;18.67;;;;;;;;;;5137558;27;20189;-66
2023/03/12 12:56:23;;;;;;;26.75;19.25;;;;;;;;;;5137583;27;20191;-66
2023/03/12 12:59:05;;;;;;;21.27;16.92;;;;;;;;;;5137218;27;20192;-63
2023/03/12 13:01:35;;;;;;;22.95;19.35;;;;;;;;;;5135139;27;20302;-67
2023/03/12 13:04:06;;;;;;;24.35;17.15;;;;;;;;;;5137989;27;20330;-64
2023/03/12 13:06:48;;;;;;;23.08;18.05;;;;;;;;;;5137120;27;20186;-66
2023/03/12 13:09:16;;;;;;;19.63;16.75;;;;;;;;;;5134505;27;20188;-66
2023/03/12 13:11:45;;;;;;;27.92;20.00;;;;;;;;;;5136970;27;20206;-69
2023/03/12 13:14:29;;;;;;;31.65;20.00;;;;;;;;;;5137271;27;20237;-65
2023/03/12 13:17:08;;;;;;;32.30;19.95;;;;;;;;;;5122407;27;20222;-67
2023/03/12 13:19:40;;;;;;;23.65;19.08;;;;;;;;;;5136464;27;20183;-66
2023/03/12 13:22:13;;;;;;;26.30;17.95;;;;;;;;;;5137268;27;20183;-66
2023/03/12 13:24:44;;;;;;;27.42;19.98;;;;;;;;;;5137181;27;20176;-65
2023/03/12 13:27:15;;;;;;;26.20;20.83;;;;;;;;;;5136838;27;20190;-67
2023/03/12 13:29:43;;;;;;;23.10;18.80;;;;;;;;;;5136977;27;20172;-66
2023/03/12 13:32:31;;;;;;;25.20;20.00;;;;;;;;;;5136720;27;20210;-66
2023/03/12 13:34:58;;;;;;;24.23;19.10;;;;;;;;;;5137107;27;20783;-65
2023/03/12 13:37:43;;;;;;;23.95;19.08;;;;;;;;;;5136489;27;20224;-66
2023/03/12 13:40:25;;;;;;;29.10;20.45;;;;;;;;;;5135902;27;20259;-66
2023/03/12 13:43:02;;;;;;;28.80;20.40;;;;;;;;;;5136165;27;20191;-64
2023/03/12 13:45:30;;;;;;;31.50;21.42;;;;;;;;;;5136484;27;20190;-64
2023/03/12 13:48:01;;;;;;;30.38;21.75;;;;;;;;;;5136244;27;20184;-64
2023/03/12 13:50:28;;;;;;;34.10;23.50;;;;;;;;;;5136402;27;20180;-65
2023/03/12 13:53:02;;;;;;;35.58;25.90;;;;;;;;;;5136347;27;20200;-66
2023/03/12 13:55:30;;;;;;;31.48;22.58;;;;;;;;;;5136052;27;20183;-66
2023/03/12 13:57:59;;;;;;;34.83;23.30;;;;;;;;;;5136197;27;20212;-66
2023/03/12 14:00:28;;;;;;;28.23;21.98;;;;;;;;;;5136223;27;20188;-64
2023/03/12 14:02:57;;;;;;;34.60;24.27;;;;;;;;;;5135792;27;20544;-66
2023/03/12 14:05:26;;;;;;;28.23;20.33;;;;;;;;;;5136100;27;20267;-65
2023/03/12 14:08:18;;;;;;;33.00;21.63;;;;;;;;;;5135958;27;20457;-64
2023/03/12 14:10:57;;;;;;;31.83;23.00;;;;;;;;;;5135708;27;20177;-65
2023/03/12 14:13:29;;;;;;;32.00;23.20;;;;;;;;;;5135524;27;20501;-66
2023/03/12 14:16:00;;;;;;;26.90;20.53;;;;;;;;;;5136216;27;20934;-63
2023/03/12 14:18:32;;;;;;;29.73;23.93;;;;;;;;;;5135827;27;20806;-64
2023/03/12 14:21:02;;;;;;;32.60;22.77;;;;;;;;;;5135969;27;20570;-64
2023/03/12 14:23:34;;;;;;;32.03;22.20;;;;;;;;;;5135354;27;20512;-66
2023/03/12 14:26:02;;;;;;;31.53;20.70;;;;;;;;;;5135484;27;20183;-64
2023/03/12 14:28:31;;;;;;;30.20;21.30;;;;;;;;;;5135885;27;20454;-64
2023/03/12 14:31:00;;;;;;;30.27;21.10;;;;;;;;;;5135275;27;20434;-64
2023/03/12 14:33:28;;;;;;;30.53;20.73;;;;;;;;;;5135117;27;20436;-65
2023/03/12 14:35:57;;;;;;;29.87;18.90;;;;;;;;;;5135787;27;20978;-66
2023/03/12 14:38:30;;;;;;;28.77;18.67;;;;;;;;;;5135790;27;20496;-64
2023/03/12 14:41:01;;;;;;;26.00;17.43;;;;;;;;;;5135633;27;20509;-64
2023/03/12 14:43:29;;;;;;;26.87;18.40;;;;;;;;;;5135188;27;20517;-64
2023/03/12 14:45:57;;;;;;;22.20;15.57;;;;;;;;;;5135383;27;20539;-64